createdAt,value
2017-03-07T00:00:20.569Z,940.43
2017-03-07T00:01:20.546Z,940.45
2017-03-07T00:02:20.574Z,940.47
2017-03-07T00:03:20.520Z,940.46
2017-03-07T00:04:20.552Z,940.49
2017-03-07T00:05:20.457Z,940.48
2017-03-07T00:06:20.492Z,940.48
2017-03-07T00:07:20.681Z,940.49
2017-03-07T00:08:20.450Z,940.51
2017-03-07T00:09:20.449Z,940.52
2017-03-07T00:10:20.438Z,940.51
2017-03-07T00:11:20.403Z,940.55
2017-03-07T00:12:20.517Z,940.55
2017-03-07T00:13:20.381Z,940.57
2017-03-07T00:14:20.361Z,940.57
2017-03-07T00:15:20.388Z,940.59
2017-03-07T00:16:20.324Z,940.58
2017-03-07T00:17:20.373Z,940.6
2017-03-07T00:18:20.298Z,940.61
2017-03-07T00:19:20.380Z,940.64
2017-03-07T00:20:20.337Z,940.65
2017-03-07T00:21:20.278Z,940.66
2017-03-07T00:22:20.364Z,940.71
2017-03-07T00:23:20.209Z,940.67
2017-03-07T00:24:20.223Z,940.66
2017-03-07T00:25:20.189Z,940.69
2017-03-07T00:26:20.205Z,940.71
2017-03-07T00:27:20.235Z,940.73
2017-03-07T00:28:20.227Z,940.69
2017-03-07T00:29:20.175Z,940.73
2017-03-07T00:30:20.110Z,940.68
2017-03-07T00:31:20.127Z,940.73
2017-03-07T00:32:20.152Z,940.73
2017-03-07T00:33:20.101Z,940.74
2017-03-07T00:34:20.108Z,940.78
2017-03-07T00:35:20.117Z,940.79
2017-03-07T00:36:20.103Z,940.79
2017-03-07T00:37:20.253Z,940.78
2017-03-07T00:38:20.026Z,940.78
2017-03-07T00:39:19.958Z,940.83
2017-03-07T00:40:19.982Z,940.83
2017-03-07T00:41:20.023Z,940.84
2017-03-07T00:42:20.084Z,940.83
2017-03-07T00:43:19.933Z,940.81
2017-03-07T00:44:19.934Z,940.83
2017-03-07T00:45:19.880Z,940.84
2017-03-07T00:46:19.901Z,940.89
2017-03-07T00:47:20.037Z,940.89
2017-03-07T00:48:19.920Z,940.87
2017-03-07T00:49:19.789Z,940.93
2017-03-07T00:50:19.774Z,940.91
2017-03-07T00:51:19.757Z,940.89
2017-03-07T00:52:19.743Z,940.87
2017-03-07T00:53:19.730Z,940.93
2017-03-07T00:54:19.713Z,940.9
2017-03-07T00:55:19.700Z,940.93
2017-03-07T00:56:19.685Z,940.95
2017-03-07T00:57:19.671Z,940.9
2017-03-07T00:58:19.656Z,940.94
2017-03-07T00:59:19.641Z,940.97
2017-03-07T01:00:19.628Z,940.92
2017-03-07T01:01:19.612Z,940.95
2017-03-07T01:02:19.598Z,940.92
2017-03-07T01:03:19.583Z,940.93
2017-03-07T01:04:19.571Z,940.96
2017-03-07T01:05:19.555Z,940.96
2017-03-07T01:06:19.540Z,940.97
2017-03-07T01:07:19.524Z,941
2017-03-07T01:08:19.511Z,940.99
2017-03-07T01:09:19.495Z,941.06
2017-03-07T01:10:19.483Z,941.03
2017-03-07T01:11:19.467Z,941.01
2017-03-07T01:12:19.453Z,940.98
2017-03-07T01:13:19.437Z,941.02
2017-03-07T01:14:19.423Z,941
2017-03-07T01:15:19.408Z,941.04
2017-03-07T01:16:19.393Z,941.01
2017-03-07T01:17:19.378Z,941.03
2017-03-07T01:18:19.364Z,941.04
2017-03-07T01:19:19.349Z,941.05
2017-03-07T01:20:19.334Z,941.03
2017-03-07T01:21:19.319Z,941.06
2017-03-07T01:22:19.332Z,941.08
2017-03-07T01:23:19.290Z,941.03
2017-03-07T01:24:19.275Z,941.05
2017-03-07T01:25:19.267Z,941.1
2017-03-07T01:26:19.250Z,941.05
2017-03-07T01:27:19.235Z,941.11
2017-03-07T01:28:19.220Z,941.11
2017-03-07T01:29:19.206Z,941.08
2017-03-07T01:30:19.191Z,941.11
2017-03-07T01:31:19.178Z,941.09
2017-03-07T01:32:19.162Z,941.1
2017-03-07T01:33:19.148Z,941.1
2017-03-07T01:34:19.155Z,941.13
2017-03-07T01:35:19.116Z,941.17
2017-03-07T01:36:19.102Z,941.15
2017-03-07T01:37:19.088Z,941.15
2017-03-07T01:38:19.072Z,941.22
2017-03-07T01:39:19.057Z,941.2
2017-03-07T01:40:19.043Z,941.25
2017-03-07T01:41:19.027Z,941.24
2017-03-07T01:42:19.011Z,941.25
2017-03-07T01:43:18.998Z,941.25
2017-03-07T01:44:18.983Z,941.31
2017-03-07T01:45:18.966Z,941.25
2017-03-07T01:46:18.952Z,941.25
2017-03-07T01:47:18.938Z,941.26
2017-03-07T01:48:18.922Z,941.28
2017-03-07T01:49:18.908Z,941.29
2017-03-07T01:50:18.892Z,941.29
2017-03-07T01:51:18.877Z,941.31
2017-03-07T01:52:18.860Z,941.3
2017-03-07T01:53:18.847Z,941.28
2017-03-07T01:54:18.832Z,941.32
2017-03-07T01:55:18.817Z,941.34
2017-03-07T01:56:18.801Z,941.35
2017-03-07T01:57:18.786Z,941.35
2017-03-07T01:58:18.771Z,941.38
2017-03-07T01:59:18.757Z,941.39
2017-03-07T02:00:18.741Z,941.39
2017-03-07T02:01:18.725Z,941.44
2017-03-07T02:02:18.709Z,941.44
2017-03-07T02:03:18.694Z,941.44
2017-03-07T02:04:18.680Z,941.44
2017-03-07T02:05:18.663Z,941.46
2017-03-07T02:06:18.650Z,941.41
2017-03-07T02:07:18.633Z,941.5
2017-03-07T02:08:18.618Z,941.44
2017-03-07T02:09:18.604Z,941.44
2017-03-07T02:10:18.587Z,941.43
2017-03-07T02:11:18.572Z,941.43
2017-03-07T02:12:18.557Z,941.48
2017-03-07T02:13:18.541Z,941.43
2017-03-07T02:14:18.526Z,941.45
2017-03-07T02:15:18.512Z,941.49
2017-03-07T02:16:18.495Z,941.48
2017-03-07T02:17:18.480Z,941.49
2017-03-07T02:18:18.464Z,941.48
2017-03-07T02:19:18.450Z,941.51
2017-03-07T02:20:18.434Z,941.47
2017-03-07T02:21:18.420Z,941.49
2017-03-07T02:22:18.405Z,941.51
2017-03-07T02:23:18.388Z,941.45
2017-03-07T02:24:18.373Z,941.47
2017-03-07T02:25:18.357Z,941.51
2017-03-07T02:26:18.342Z,941.49
2017-03-07T02:27:18.326Z,941.54
2017-03-07T02:28:18.313Z,941.49
2017-03-07T02:29:18.296Z,941.5
2017-03-07T02:30:18.282Z,941.5
2017-03-07T02:31:18.267Z,941.52
2017-03-07T02:32:18.252Z,941.52
2017-03-07T02:33:18.235Z,941.53
2017-03-07T02:34:18.221Z,941.55
2017-03-07T02:35:18.205Z,941.58
2017-03-07T02:36:18.191Z,941.58
2017-03-07T02:37:18.175Z,941.56
2017-03-07T02:38:18.161Z,941.57
2017-03-07T02:39:18.146Z,941.56
2017-03-07T02:40:18.131Z,941.55
2017-03-07T02:41:18.114Z,941.55
2017-03-07T02:42:18.101Z,941.55
2017-03-07T02:43:18.085Z,941.58
2017-03-07T02:44:18.071Z,941.56
2017-03-07T02:45:18.057Z,941.55
2017-03-07T02:46:18.039Z,941.57
2017-03-07T02:47:18.024Z,941.54
2017-03-07T02:48:18.010Z,941.57
2017-03-07T02:49:17.994Z,941.56
2017-03-07T02:50:17.980Z,941.55
2017-03-07T02:51:17.965Z,941.58
2017-03-07T02:52:17.949Z,941.58
2017-03-07T02:53:17.935Z,941.54
2017-03-07T02:54:17.921Z,941.58
2017-03-07T02:55:17.905Z,941.55
2017-03-07T02:56:17.892Z,941.59
2017-03-07T02:57:17.875Z,941.62
2017-03-07T02:58:17.862Z,941.62
2017-03-07T02:59:17.845Z,941.62
2017-03-07T03:00:17.834Z,941.69
2017-03-07T03:01:17.817Z,941.66
2017-03-07T03:02:17.802Z,941.69
2017-03-07T03:03:17.786Z,941.72
2017-03-07T03:04:17.772Z,941.68
2017-03-07T03:05:17.757Z,941.68
2017-03-07T03:06:17.742Z,941.71
2017-03-07T03:07:17.727Z,941.74
2017-03-07T03:08:17.713Z,941.73
2017-03-07T03:09:17.698Z,941.78
2017-03-07T03:10:17.682Z,941.78
2017-03-07T03:11:17.667Z,941.79
2017-03-07T03:12:17.653Z,941.79
2017-03-07T03:13:17.636Z,941.8
2017-03-07T03:14:17.622Z,941.85
2017-03-07T03:15:17.607Z,941.83
2017-03-07T03:16:17.593Z,941.87
2017-03-07T03:17:17.580Z,941.86
2017-03-07T03:18:17.561Z,941.9
2017-03-07T03:19:17.547Z,941.87
2017-03-07T03:20:17.533Z,941.93
2017-03-07T03:21:17.516Z,941.95
2017-03-07T03:22:17.503Z,941.97
2017-03-07T03:23:17.486Z,941.97
2017-03-07T03:24:17.471Z,942.01
2017-03-07T03:25:17.456Z,941.99
2017-03-07T03:26:17.442Z,942.02
2017-03-07T03:27:17.425Z,941.99
2017-03-07T03:28:17.410Z,942.05
2017-03-07T03:29:17.395Z,942.05
2017-03-07T03:30:17.381Z,942.05
2017-03-07T03:31:17.363Z,942.09
2017-03-07T03:32:17.349Z,942.08
2017-03-07T03:33:17.335Z,942.11
2017-03-07T03:34:17.319Z,942.09
2017-03-07T03:35:17.304Z,942.11
2017-03-07T03:36:17.288Z,942.1
2017-03-07T03:37:17.274Z,942.15
2017-03-07T03:38:17.257Z,942.17
2017-03-07T03:39:17.241Z,942.18
2017-03-07T03:40:17.226Z,942.17
2017-03-07T03:41:17.211Z,942.17
2017-03-07T03:42:17.194Z,942.17
2017-03-07T03:43:17.180Z,942.22
2017-03-07T03:44:17.165Z,942.22
2017-03-07T03:45:17.149Z,942.24
2017-03-07T03:46:17.133Z,942.23
2017-03-07T03:47:17.117Z,942.25
2017-03-07T03:48:17.102Z,942.27
2017-03-07T03:49:17.087Z,942.27
2017-03-07T03:50:17.071Z,942.36
2017-03-07T03:51:17.055Z,942.31
2017-03-07T03:52:17.041Z,942.35
2017-03-07T03:53:17.025Z,942.37
2017-03-07T03:54:17.008Z,942.37
2017-03-07T03:55:16.992Z,942.38
2017-03-07T03:56:16.980Z,942.42
2017-03-07T03:57:16.964Z,942.36
2017-03-07T03:58:16.946Z,942.42
2017-03-07T03:59:16.940Z,942.44
2017-03-07T04:00:16.916Z,942.46
2017-03-07T04:01:16.900Z,942.48
2017-03-07T04:02:16.886Z,942.49
2017-03-07T04:03:16.869Z,942.47
2017-03-07T04:04:16.853Z,942.52
2017-03-07T04:05:16.837Z,942.48
2017-03-07T04:06:16.823Z,942.5
2017-03-07T04:07:16.807Z,942.47
2017-03-07T04:08:16.791Z,942.53
2017-03-07T04:09:16.775Z,942.5
2017-03-07T04:10:16.759Z,942.52
2017-03-07T04:11:16.743Z,942.54
2017-03-07T04:12:16.728Z,942.56
2017-03-07T04:13:16.713Z,942.52
2017-03-07T04:14:16.697Z,942.55
2017-03-07T04:15:16.682Z,942.55
2017-03-07T04:16:16.665Z,942.58
2017-03-07T04:17:16.650Z,942.57
2017-03-07T04:18:16.634Z,942.57
2017-03-07T04:19:16.618Z,942.59
2017-03-07T04:20:16.603Z,942.61
2017-03-07T04:21:16.587Z,942.61
2017-03-07T04:22:16.572Z,942.61
2017-03-07T04:23:16.556Z,942.58
2017-03-07T04:24:16.541Z,942.62
2017-03-07T04:25:16.525Z,942.7
2017-03-07T04:26:16.508Z,942.67
2017-03-07T04:27:16.493Z,942.71
2017-03-07T04:28:16.479Z,942.68
2017-03-07T04:29:16.463Z,942.67
2017-03-07T04:30:16.447Z,942.68
2017-03-07T04:31:16.431Z,942.7
2017-03-07T04:32:16.417Z,942.71
2017-03-07T04:33:16.400Z,942.76
2017-03-07T04:34:16.384Z,942.76
2017-03-07T04:35:16.369Z,942.79
2017-03-07T04:36:16.353Z,942.78
2017-03-07T04:37:16.337Z,942.81
2017-03-07T04:38:16.322Z,942.81
2017-03-07T04:39:16.306Z,942.81
2017-03-07T04:40:16.289Z,942.86
2017-03-07T04:41:16.274Z,942.87
2017-03-07T04:42:16.259Z,942.88
2017-03-07T04:43:16.243Z,942.89
2017-03-07T04:44:16.227Z,942.91
2017-03-07T04:45:16.213Z,942.9
2017-03-07T04:46:16.196Z,942.89
2017-03-07T04:47:16.181Z,942.92
2017-03-07T04:48:16.164Z,942.9
2017-03-07T04:49:16.149Z,942.96
2017-03-07T04:50:16.133Z,942.93
2017-03-07T04:51:16.116Z,942.95
2017-03-07T04:52:16.101Z,942.94
2017-03-07T04:53:16.086Z,942.97
2017-03-07T04:54:16.072Z,942.93
2017-03-07T04:55:16.055Z,942.97
2017-03-07T04:56:16.038Z,942.98
2017-03-07T04:57:16.023Z,943.01
2017-03-07T04:58:16.008Z,943.01
2017-03-07T04:59:15.991Z,943.02
2017-03-07T05:00:15.977Z,943
2017-03-07T05:01:15.963Z,943.05
2017-03-07T05:02:15.942Z,943.11
2017-03-07T05:03:15.928Z,943.06
2017-03-07T05:04:15.912Z,943.07
2017-03-07T05:05:15.899Z,943.09
2017-03-07T05:06:15.880Z,943.06
2017-03-07T05:07:15.865Z,943.08
2017-03-07T05:08:15.849Z,943.11
2017-03-07T05:09:15.833Z,943.11
2017-03-07T05:10:15.817Z,943.15
2017-03-07T05:11:15.801Z,943.18
2017-03-07T05:12:15.785Z,943.21
2017-03-07T05:13:15.771Z,943.19
2017-03-07T05:14:15.753Z,943.2
2017-03-07T05:15:15.739Z,943.19
2017-03-07T05:16:15.721Z,943.23
2017-03-07T05:17:15.705Z,943.28
2017-03-07T05:18:15.693Z,943.24
2017-03-07T05:19:15.674Z,943.29
2017-03-07T05:20:15.658Z,943.27
2017-03-07T05:21:15.642Z,943.25
2017-03-07T05:22:15.626Z,943.26
2017-03-07T05:23:15.611Z,943.3
2017-03-07T05:24:15.594Z,943.31
2017-03-07T05:25:15.579Z,943.3
2017-03-07T05:26:15.562Z,943.34
2017-03-07T05:27:15.547Z,943.38
2017-03-07T05:28:15.530Z,943.38
2017-03-07T05:29:15.515Z,943.41
2017-03-07T05:30:15.498Z,943.41
2017-03-07T05:31:15.483Z,943.45
2017-03-07T05:32:15.466Z,943.47
2017-03-07T05:33:15.450Z,943.47
2017-03-07T05:34:15.433Z,943.52
2017-03-07T05:35:15.419Z,943.56
2017-03-07T05:36:15.401Z,943.56
2017-03-07T05:37:15.387Z,943.55
2017-03-07T05:38:15.372Z,943.57
2017-03-07T05:39:15.354Z,943.58
2017-03-07T05:40:15.338Z,943.6
2017-03-07T05:41:15.321Z,943.59
2017-03-07T05:42:15.307Z,943.63
2017-03-07T05:43:15.290Z,943.63
2017-03-07T05:44:15.273Z,943.68
2017-03-07T05:45:15.258Z,943.67
2017-03-07T05:46:15.241Z,943.67
2017-03-07T05:47:15.225Z,943.7
2017-03-07T05:48:15.211Z,943.68
2017-03-07T05:49:15.194Z,943.7
2017-03-07T05:50:15.178Z,943.74
2017-03-07T05:51:15.162Z,943.74
2017-03-07T05:52:15.148Z,943.78
2017-03-07T05:53:15.131Z,943.76
2017-03-07T05:54:15.113Z,943.78
2017-03-07T05:55:15.098Z,943.82
2017-03-07T05:56:15.082Z,943.83
2017-03-07T05:57:15.065Z,943.89
2017-03-07T05:58:15.050Z,943.85
2017-03-07T05:59:15.035Z,943.87
2017-03-07T06:00:15.018Z,943.89
2017-03-07T06:01:15.004Z,943.9
2017-03-07T06:02:14.986Z,943.94
2017-03-07T06:03:14.971Z,943.94
2017-03-07T06:04:14.956Z,943.95
2017-03-07T06:05:14.939Z,943.97
2017-03-07T06:06:14.925Z,943.95
2017-03-07T06:07:14.908Z,944.01
2017-03-07T06:08:14.892Z,944
2017-03-07T06:09:14.877Z,944.08
2017-03-07T06:10:14.860Z,944.11
2017-03-07T06:11:14.845Z,944.12
2017-03-07T06:12:14.828Z,944.15
2017-03-07T06:13:14.814Z,944.14
2017-03-07T06:14:14.797Z,944.16
2017-03-07T06:15:14.782Z,944.18
2017-03-07T06:16:14.766Z,944.2
2017-03-07T06:17:14.750Z,944.18
2017-03-07T06:18:14.733Z,944.23
2017-03-07T06:19:14.717Z,944.26
2017-03-07T06:20:14.702Z,944.29
2017-03-07T06:21:14.687Z,944.27
2017-03-07T06:22:14.671Z,944.33
2017-03-07T06:23:14.655Z,944.36
2017-03-07T06:24:14.640Z,944.35
2017-03-07T06:25:14.623Z,944.38
2017-03-07T06:26:14.608Z,944.39
2017-03-07T06:27:14.592Z,944.38
2017-03-07T06:28:14.577Z,944.39
2017-03-07T06:29:14.560Z,944.42
2017-03-07T06:30:14.544Z,944.44
2017-03-07T06:31:14.529Z,944.41
2017-03-07T06:32:14.513Z,944.46
2017-03-07T06:33:14.498Z,944.46
2017-03-07T06:34:14.480Z,944.51
2017-03-07T06:35:14.466Z,944.5
2017-03-07T06:36:14.450Z,944.47
2017-03-07T06:37:14.434Z,944.51
2017-03-07T06:38:14.418Z,944.52
2017-03-07T06:39:14.404Z,944.57
2017-03-07T06:40:14.387Z,944.6
2017-03-07T06:41:14.372Z,944.6
2017-03-07T06:42:14.356Z,944.58
2017-03-07T06:43:14.341Z,944.63
2017-03-07T06:44:14.325Z,944.68
2017-03-07T06:45:14.309Z,944.66
2017-03-07T06:46:14.292Z,944.68
2017-03-07T06:47:14.278Z,944.71
2017-03-07T06:48:14.261Z,944.73
2017-03-07T06:49:14.247Z,944.71
2017-03-07T06:50:14.231Z,944.76
2017-03-07T06:51:14.216Z,944.78
2017-03-07T06:52:14.200Z,944.82
2017-03-07T06:53:14.183Z,944.77
2017-03-07T06:54:14.169Z,944.82
2017-03-07T06:55:14.153Z,944.8
2017-03-07T06:56:14.137Z,944.88
2017-03-07T06:57:14.120Z,944.85
2017-03-07T06:58:14.105Z,944.9
2017-03-07T06:59:14.088Z,944.9
2017-03-07T07:00:14.072Z,944.94
2017-03-07T07:01:14.058Z,944.91
2017-03-07T07:02:14.043Z,944.94
2017-03-07T07:03:14.026Z,944.99
2017-03-07T07:04:14.009Z,945
2017-03-07T07:05:13.995Z,944.99
2017-03-07T07:06:13.979Z,945.03
2017-03-07T07:07:13.962Z,945.03
2017-03-07T07:08:13.948Z,945.02
2017-03-07T07:09:13.932Z,945.1
2017-03-07T07:10:13.915Z,945.1
2017-03-07T07:11:13.923Z,945.12
2017-03-07T07:12:13.885Z,945.15
2017-03-07T07:13:13.869Z,945.19
2017-03-07T07:14:13.853Z,945.19
2017-03-07T07:15:13.838Z,945.21
2017-03-07T07:16:13.822Z,945.24
2017-03-07T07:17:13.807Z,945.26
2017-03-07T07:18:13.790Z,945.25
2017-03-07T07:19:13.776Z,945.31
2017-03-07T07:20:13.758Z,945.34
2017-03-07T07:21:13.742Z,945.32
2017-03-07T07:22:13.727Z,945.33
2017-03-07T07:23:13.712Z,945.38
2017-03-07T07:24:13.696Z,945.4
2017-03-07T07:25:13.680Z,945.4
2017-03-07T07:26:13.665Z,945.46
2017-03-07T07:27:13.650Z,945.43
2017-03-07T07:28:13.633Z,945.43
2017-03-07T07:29:13.617Z,945.48
2017-03-07T07:30:13.602Z,945.5
2017-03-07T07:31:13.588Z,945.51
2017-03-07T07:32:13.570Z,945.49
2017-03-07T07:33:13.556Z,945.55
2017-03-07T07:34:13.539Z,945.56
2017-03-07T07:35:13.525Z,945.55
2017-03-07T07:36:13.508Z,945.6
2017-03-07T07:37:13.492Z,945.64
2017-03-07T07:38:13.478Z,945.63
2017-03-07T07:39:13.463Z,945.63
2017-03-07T07:40:13.448Z,945.66
2017-03-07T07:41:13.432Z,945.66
2017-03-07T07:42:13.421Z,945.68
2017-03-07T07:43:13.401Z,945.68
2017-03-07T07:44:13.387Z,945.73
2017-03-07T07:45:13.371Z,945.79
2017-03-07T07:46:13.356Z,945.74
2017-03-07T07:47:13.338Z,945.8
2017-03-07T07:48:13.324Z,945.78
2017-03-07T07:49:13.308Z,945.8
2017-03-07T07:50:13.293Z,945.85
2017-03-07T07:51:13.277Z,945.84
2017-03-07T07:52:13.263Z,945.87
2017-03-07T07:53:13.247Z,945.87
2017-03-07T07:54:13.231Z,945.9
2017-03-07T07:55:13.217Z,945.89
2017-03-07T07:56:13.201Z,945.92
2017-03-07T07:57:13.185Z,945.89
2017-03-07T07:58:13.170Z,945.96
2017-03-07T07:59:13.155Z,945.94
2017-03-07T08:00:13.141Z,946.01
2017-03-07T08:01:13.123Z,946.01
2017-03-07T08:02:13.109Z,946.02
2017-03-07T08:03:13.093Z,946.04
2017-03-07T08:04:13.080Z,946.06
2017-03-07T08:05:13.062Z,946.07
2017-03-07T08:06:13.047Z,946.05
2017-03-07T08:07:13.033Z,946.07
2017-03-07T08:08:13.018Z,946.11
2017-03-07T08:09:13.003Z,946.12
2017-03-07T08:10:12.986Z,946.16
2017-03-07T08:11:12.972Z,946.19
2017-03-07T08:12:12.955Z,946.19
2017-03-07T08:13:12.940Z,946.2
2017-03-07T08:14:12.926Z,946.25
2017-03-07T08:15:12.911Z,946.22
2017-03-07T08:16:12.894Z,946.27
2017-03-07T08:17:12.879Z,946.23
2017-03-07T08:18:12.864Z,946.27
2017-03-07T08:19:12.850Z,946.3
2017-03-07T08:20:12.833Z,946.3
2017-03-07T08:21:12.819Z,946.31
2017-03-07T08:22:12.803Z,946.31
2017-03-07T08:23:12.787Z,946.35
2017-03-07T08:24:12.775Z,946.35
2017-03-07T08:25:12.758Z,946.4
2017-03-07T08:28:12.712Z,946.44
2017-03-07T08:29:12.695Z,946.5
2017-03-07T08:30:12.681Z,946.49
2017-03-07T08:31:12.663Z,946.45
2017-03-07T08:32:12.650Z,946.5
2017-03-07T08:33:12.634Z,946.55
2017-03-07T08:34:12.618Z,946.55
2017-03-07T08:35:12.602Z,946.59
2017-03-07T08:36:12.587Z,946.61
2017-03-07T08:37:12.572Z,946.66
2017-03-07T08:38:12.556Z,946.61
2017-03-07T08:39:12.542Z,946.66
2017-03-07T08:40:12.525Z,946.71
2017-03-07T08:41:12.510Z,946.75
2017-03-07T08:42:12.496Z,946.77
2017-03-07T08:43:12.481Z,946.75
2017-03-07T08:44:12.465Z,946.78
2017-03-07T08:45:12.450Z,946.79
2017-03-07T08:46:12.434Z,946.83
2017-03-07T08:47:12.419Z,946.83
2017-03-07T08:48:12.404Z,946.81
2017-03-07T08:49:12.387Z,946.81
2017-03-07T08:50:12.373Z,946.87
2017-03-07T08:51:12.358Z,946.87
2017-03-07T08:52:12.342Z,946.94
2017-03-07T08:53:12.327Z,946.91
2017-03-07T08:54:12.311Z,946.94
2017-03-07T08:55:12.297Z,946.93
2017-03-07T08:56:12.281Z,946.94
2017-03-07T08:57:12.266Z,946.94
2017-03-07T08:58:12.250Z,946.97
2017-03-07T08:59:12.236Z,946.95
2017-03-07T09:00:12.219Z,946.99
2017-03-07T09:01:12.204Z,947
2017-03-07T09:02:12.190Z,947.05
2017-03-07T09:03:12.175Z,947.06
2017-03-07T09:04:12.159Z,947.06
2017-03-07T09:05:12.143Z,947.05
2017-03-07T09:06:12.129Z,947.07
2017-03-07T09:07:12.113Z,947.08
2017-03-07T09:08:12.096Z,947.11
2017-03-07T09:09:12.082Z,947.13
2017-03-07T09:10:12.068Z,947.13
2017-03-07T09:11:12.051Z,947.19
2017-03-07T09:12:12.036Z,947.22
2017-03-07T09:13:12.021Z,947.24
2017-03-07T09:14:12.006Z,947.23
2017-03-07T09:15:11.992Z,947.22
2017-03-07T09:16:11.977Z,947.26
2017-03-07T09:17:11.962Z,947.29
2017-03-07T09:18:11.945Z,947.29
2017-03-07T09:19:11.930Z,947.3
2017-03-07T09:20:11.916Z,947.33
2017-03-07T09:21:12.019Z,947.31
2017-03-07T09:22:12.004Z,947.35
2017-03-07T09:23:11.910Z,947.3
2017-03-07T09:24:11.931Z,947.34
2017-03-07T09:25:11.980Z,947.33
2017-03-07T09:26:11.824Z,947.36
2017-03-07T09:27:11.809Z,947.43
2017-03-07T09:28:11.795Z,947.41
2017-03-07T09:29:11.779Z,947.45
2017-03-07T09:30:11.764Z,947.46
2017-03-07T09:31:11.750Z,947.5
2017-03-07T09:32:11.734Z,947.5
2017-03-07T09:33:11.720Z,947.5
2017-03-07T09:34:11.706Z,947.56
2017-03-07T09:35:11.690Z,947.56
2017-03-07T09:36:11.674Z,947.57
2017-03-07T09:37:11.657Z,947.55
2017-03-07T09:38:11.644Z,947.61
2017-03-07T09:39:11.628Z,947.6
2017-03-07T09:40:11.612Z,947.6
2017-03-07T09:41:11.599Z,947.63
2017-03-07T09:42:11.583Z,947.61
2017-03-07T09:43:11.568Z,947.63
2017-03-07T09:44:11.552Z,947.67
2017-03-07T09:45:11.537Z,947.67
2017-03-07T09:46:11.521Z,947.68
2017-03-07T09:47:11.560Z,947.72
2017-03-07T09:48:11.490Z,947.75
2017-03-07T09:49:11.475Z,947.78
2017-03-07T09:50:11.487Z,947.76
2017-03-07T09:51:11.444Z,947.78
2017-03-07T09:52:11.430Z,947.78
2017-03-07T09:53:11.414Z,947.83
2017-03-07T09:54:11.399Z,947.8
2017-03-07T09:55:11.383Z,947.79
2017-03-07T09:56:11.369Z,947.81
2017-03-07T09:57:11.352Z,947.83
2017-03-07T09:58:11.339Z,947.87
2017-03-07T09:59:11.322Z,947.87
2017-03-07T10:00:11.307Z,947.9
2017-03-07T10:01:11.345Z,947.92
2017-03-07T10:02:11.282Z,947.85
2017-03-07T10:03:11.262Z,947.89
2017-03-07T10:04:11.245Z,947.97
2017-03-07T10:05:11.231Z,947.97
2017-03-07T10:06:11.216Z,947.99
2017-03-07T10:07:11.199Z,947.98
2017-03-07T10:08:11.183Z,948.01
2017-03-07T10:09:11.169Z,947.99
2017-03-07T10:10:11.152Z,948.04
2017-03-07T10:11:11.139Z,948.07
2017-03-07T10:12:11.123Z,948.07
2017-03-07T10:13:11.108Z,948.1
2017-03-07T10:14:11.116Z,948.13
2017-03-07T10:15:11.078Z,948.1
2017-03-07T10:16:11.062Z,948.13
2017-03-07T10:17:11.047Z,948.13
2017-03-07T10:18:11.032Z,948.19
2017-03-07T10:19:11.019Z,948.18
2017-03-07T10:20:11.000Z,948.18
2017-03-07T10:21:10.985Z,948.15
2017-03-07T10:22:10.970Z,948.19
2017-03-07T10:23:10.956Z,948.2
2017-03-07T10:24:10.940Z,948.21
2017-03-07T10:25:10.925Z,948.2
2017-03-07T10:26:10.911Z,948.19
2017-03-07T10:27:10.895Z,948.22
2017-03-07T10:28:10.880Z,948.25
2017-03-07T10:29:10.866Z,948.25
2017-03-07T10:30:10.850Z,948.24
2017-03-07T10:31:10.834Z,948.26
2017-03-07T10:32:10.820Z,948.25
2017-03-07T10:33:10.804Z,948.27
2017-03-07T10:34:10.793Z,948.32
2017-03-07T10:35:10.775Z,948.36
2017-03-07T10:36:10.760Z,948.33
2017-03-07T10:37:10.746Z,948.34
2017-03-07T10:38:10.731Z,948.37
2017-03-07T10:39:10.717Z,948.38
2017-03-07T10:40:10.701Z,948.39
2017-03-07T10:41:10.687Z,948.41
2017-03-07T10:42:10.669Z,948.45
2017-03-07T10:43:10.658Z,948.4
2017-03-07T10:44:10.640Z,948.42
2017-03-07T10:45:10.627Z,948.44
2017-03-07T10:46:10.612Z,948.45
2017-03-07T10:47:10.597Z,948.47
2017-03-07T10:48:10.582Z,948.48
2017-03-07T10:49:10.568Z,948.47
2017-03-07T10:50:10.554Z,948.48
2017-03-07T10:51:10.540Z,948.52
2017-03-07T10:52:10.525Z,948.56
2017-03-07T10:53:10.509Z,948.51
2017-03-07T10:54:10.493Z,948.56
2017-03-07T10:55:10.480Z,948.54
2017-03-07T10:56:10.465Z,948.56
2017-03-07T10:57:10.451Z,948.59
2017-03-07T10:58:10.440Z,948.61
2017-03-07T10:59:10.421Z,948.59
2017-03-07T11:00:10.405Z,948.6
2017-03-07T11:01:10.392Z,948.58
2017-03-07T11:02:10.376Z,948.64
2017-03-07T11:03:10.363Z,948.63
2017-03-07T11:04:10.348Z,948.65
2017-03-07T11:05:10.333Z,948.69
2017-03-07T11:06:10.319Z,948.65
2017-03-07T11:07:10.304Z,948.68
2017-03-07T11:08:10.291Z,948.72
2017-03-07T11:09:10.275Z,948.65
2017-03-07T11:10:10.260Z,948.69
2017-03-07T11:11:10.245Z,948.73
2017-03-07T11:12:10.231Z,948.68
2017-03-07T11:13:10.218Z,948.69
2017-03-07T11:14:10.202Z,948.72
2017-03-07T11:15:10.188Z,948.73
2017-03-07T11:16:10.173Z,948.75
2017-03-07T11:17:10.159Z,948.74
2017-03-07T11:18:10.145Z,948.78
2017-03-07T11:19:10.129Z,948.76
2017-03-07T11:20:10.115Z,948.79
2017-03-07T11:21:10.101Z,948.82
2017-03-07T11:22:10.085Z,948.79
2017-03-07T11:23:10.069Z,948.79
2017-03-07T11:24:10.055Z,948.87
2017-03-07T11:25:10.041Z,948.81
2017-03-07T11:26:10.027Z,948.81
2017-03-07T11:27:10.012Z,948.87
2017-03-07T11:28:09.997Z,948.84
2017-03-07T11:29:09.983Z,948.84
2017-03-07T11:30:09.968Z,948.86
2017-03-07T11:31:09.952Z,948.87
2017-03-07T11:32:09.937Z,948.85
2017-03-07T11:33:09.923Z,948.88
2017-03-07T11:34:09.908Z,948.91
2017-03-07T11:35:09.894Z,948.92
2017-03-07T11:36:09.878Z,948.95
2017-03-07T11:37:09.863Z,948.96
2017-03-07T11:38:09.848Z,949
2017-03-07T11:39:09.834Z,948.96
2017-03-07T11:40:09.820Z,949.01
2017-03-07T11:41:09.805Z,949.01
2017-03-07T11:42:09.789Z,949.02
2017-03-07T11:43:09.777Z,949.03
2017-03-07T11:44:09.760Z,949.06
2017-03-07T11:45:09.746Z,949.05
2017-03-07T11:46:09.732Z,949.08
2017-03-07T11:47:09.718Z,949.07
2017-03-07T11:48:09.701Z,949.11
2017-03-07T11:49:09.687Z,949.08
2017-03-07T11:50:09.673Z,949.06
2017-03-07T11:51:09.659Z,949.09
2017-03-07T11:52:09.643Z,949.12
2017-03-07T11:53:09.628Z,949.15
2017-03-07T11:54:09.615Z,949.13
2017-03-07T11:55:09.598Z,949.11
2017-03-07T11:56:09.584Z,949.15
2017-03-07T11:57:09.571Z,949.2
2017-03-07T11:58:09.556Z,949.23
2017-03-07T11:59:09.540Z,949.19
2017-03-07T12:00:09.526Z,949.23
2017-03-07T12:01:09.510Z,949.22
2017-03-07T12:02:09.497Z,949.27
2017-03-07T12:03:09.481Z,949.29
2017-03-07T12:04:09.467Z,949.32
2017-03-07T12:05:09.451Z,949.31
2017-03-07T12:06:09.438Z,949.34
2017-03-07T12:07:09.423Z,949.4
2017-03-07T12:08:09.410Z,949.4
2017-03-07T12:09:09.394Z,949.4
2017-03-07T12:10:09.378Z,949.41
2017-03-07T12:11:09.364Z,949.49
2017-03-07T12:12:09.349Z,949.47
2017-03-07T12:13:09.335Z,949.49
2017-03-07T12:14:09.319Z,949.52
2017-03-07T12:15:09.303Z,949.53
2017-03-07T12:16:09.289Z,949.55
2017-03-07T12:17:09.274Z,949.51
2017-03-07T12:18:09.258Z,949.55
2017-03-07T12:19:09.244Z,949.57
2017-03-07T12:20:09.228Z,949.64
2017-03-07T12:21:09.212Z,949.61
2017-03-07T12:22:09.199Z,949.63
2017-03-07T12:23:09.184Z,949.62
2017-03-07T12:24:09.169Z,949.61
2017-03-07T12:25:09.155Z,949.59
2017-03-07T12:26:09.142Z,949.63
2017-03-07T12:27:09.126Z,949.64
2017-03-07T12:28:09.110Z,949.64
2017-03-07T12:29:09.094Z,949.63
2017-03-07T12:30:09.079Z,949.6
2017-03-07T12:31:09.065Z,949.59
2017-03-07T12:32:09.050Z,949.62
2017-03-07T12:33:09.035Z,949.63